Startpagina
METAR-TAF:

METAR-TAF

Vliegvelden :

Caracas, Venezuela

Aeropuerto Internacional de Maiquetía Simón Bolívar

breedte: 10-36N, lengte: 066-59W, hoogte: 43 m

Actueel weer

Dit bericht is 2 uur en het 46 minuten geleden gemaakt, om 04:00 UTC
Weinig wind
Temperatuur 28°C
Vochtigheid 62%
Druk 1011 hPa
Zicht 10 km of meer
Verspreide wolken op 1600 ft

METAR: SVMI 280400Z 00000KT 9999 SCT016 28/20 Q1011

Tijdstip: 02:46 (06:46 UTC)

Verwachting

Dit bericht is 2 uur en het 46 minuten geleden gemaakt, om 04:00 UTC
Verwachting geldig van 28 om 06 UTC tot 29 om 06 UTC
Wind 6 kt uit het noordoosten
Zicht 10 km of meer
Verspreide wolken op 1600 ft
Tijdelijke
van 28 om 06 UTC tot 28 om 12 UTC
Wind kt uit het noorden
Zicht: 9000 m
Gebroken wolken op 1600 ft
motregen
Van 28 om 1350 UTC
Wind 6 kt uit het noordoosten
Zicht 10 km of meer
Weinig wolken op 1600 ft

TAF: SVMI 280400Z 2806/2906 05006KT 9999 SCT016 TX34/19Z TN25/08Z TEMPO 2806/2812 00000KT 9000 DZ BKN016 FM281350 05006KT 9999 FEW016

Waarnemingen en weersverwachtingen van meer dan 4000 vliegvelden (METAR en TAF).

De beschikbare stations zijn de gele en rode punten op de kaart.

Ga met uw muis naar het station om de naam te zien.

Klik dan om waarnemingen en weersverwachtingen te zien.

kaart wijzigen: klik op de groene knoppen met een zwart kruis om in te zoomen, op de groene knop met een streepje om uit te zoomen of op de groene pijlen voor aangrenzende kaarten.


METAR-TAF: